Time,TemperatureF,DewpointF,PressureIn,WindDirection,WindDirectionDegrees,WindSpeedMPH,WindSpeedGustMPH,Humidity,HourlyPrecipIn,Conditions,Clouds,dailyrainin,SoftwareType,DateUTC
2013-03-05 00:02:00,40.0,24.0,29.96,East,84,3.0,3.0,52,0.00,,,0.06,,2013-03-05 05:02:00,
2013-03-05 00:12:00,40.0,24.0,29.96,East,84,3.0,3.0,52,0.00,,,0.06,,2013-03-05 05:12:00,
2013-03-05 00:22:00,39.0,23.0,29.96,ENE,73,0.0,0.0,53,0.00,,,0.03,,2013-03-05 05:22:00,
2013-03-05 00:32:00,39.0,23.0,29.95,East,86,3.0,3.0,52,0.00,,,0.03,,2013-03-05 05:32:00,
2013-03-05 00:42:00,39.0,23.0,29.95,East,86,3.0,3.0,52,0.00,,,0.03,,2013-03-05 05:42:00,
2013-03-05 00:52:00,39.0,23.0,29.95,East,87,0.0,2.0,52,0.00,,,0.03,,2013-03-05 05:52:00,
2013-03-05 01:01:00,39.0,22.0,29.95,East,91,3.0,3.0,51,0.00,,,0.03,,2013-03-05 06:01:00,
2013-03-05 01:11:00,39.0,22.0,29.95,East,91,3.0,3.0,51,0.00,,,0.03,,2013-03-05 06:11:00,
2013-03-05 01:22:00,39.0,23.0,29.95,ENE,65,0.0,0.0,52,0.00,,,0.03,,2013-03-05 06:22:00,
2013-03-05 01:32:00,39.0,23.0,29.94,ENE,69,0.0,0.0,53,0.00,,,0.03,,2013-03-05 06:32:00,
2013-03-05 01:42:00,39.0,23.0,29.94,ENE,69,0.0,0.0,53,0.00,,,0.03,,2013-03-05 06:42:00,
2013-03-05 01:52:00,39.0,23.0,29.94,East,91,2.0,3.0,53,0.00,,,0.03,,2013-03-05 06:52:00,
2013-03-05 02:01:00,39.0,23.0,29.93,East,87,4.0,4.0,52,0.00,,,0.03,,2013-03-05 07:01:00,
2013-03-05 02:11:00,39.0,23.0,29.93,East,87,4.0,4.0,52,0.00,,,0.03,,2013-03-05 07:11:00,
2013-03-05 02:22:00,40.0,23.0,29.92,East,98,4.0,4.0,51,0.00,,,0.03,,2013-03-05 07:22:00,
2013-03-05 02:31:00,40.0,23.0,29.92,ENE,77,2.0,4.0,50,0.00,,,0.03,,2013-03-05 07:31:00,
2013-03-05 02:41:00,40.0,23.0,29.92,ENE,77,2.0,4.0,50,0.00,,,0.03,,2013-03-05 07:41:00,
2013-03-05 02:52:00,40.0,23.0,29.92,East,83,2.0,2.0,51,0.00,,,0.03,,2013-03-05 07:52:00,
2013-03-05 03:02:00,39.0,23.0,29.91,East,79,2.0,2.0,53,0.00,,,0.03,,2013-03-05 08:02:00,
2013-03-05 03:11:00,39.0,23.0,29.91,East,79,2.0,2.0,53,0.00,,,0.03,,2013-03-05 08:11:00,
2013-03-05 03:21:00,39.0,23.0,29.91,East,100,2.0,2.0,53,0.00,,,0.03,,2013-03-05 08:21:00,
2013-03-05 03:31:00,38.0,23.0,29.90,NE,53,2.0,2.0,55,0.00,,,0.03,,2013-03-05 08:31:00,
2013-03-05 03:41:00,38.0,23.0,29.90,NE,53,2.0,2.0,55,0.00,,,0.03,,2013-03-05 08:41:00,
2013-03-05 03:52:00,38.0,24.0,29.89,ENE,72,3.0,3.0,56,0.00,,,0.03,,2013-03-05 08:52:00,
2013-03-05 04:01:00,38.0,25.0,29.88,ENE,77,3.0,5.0,58,0.00,,,0.03,,2013-03-05 09:01:00,
2013-03-05 04:11:00,38.0,25.0,29.88,East,80,3.0,3.0,58,0.00,,,0.03,,2013-03-05 09:11:00,
2013-03-05 04:21:00,38.0,25.0,29.88,East,80,3.0,3.0,58,0.00,,,0.03,,2013-03-05 09:21:00,
2013-03-05 04:31:00,38.0,24.0,29.88,East,89,2.0,2.0,57,0.00,,,0.03,,2013-03-05 09:31:00,
2013-03-05 04:42:00,38.0,24.0,29.88,East,89,2.0,2.0,57,0.00,,,0.03,,2013-03-05 09:42:00,
2013-03-05 04:52:00,38.0,25.0,29.87,ENE,70,5.0,5.0,59,0.00,,,0.03,,2013-03-05 09:52:00,
2013-03-05 05:01:00,38.0,25.0,29.88,ENE,75,3.0,5.0,58,0.00,,,0.03,,2013-03-05 10:01:00,
2013-03-05 05:11:00,38.0,25.0,29.88,ENE,75,3.0,5.0,58,0.00,,,0.03,,2013-03-05 10:11:00,
2013-03-05 05:21:00,38.0,25.0,29.88,ENE,59,4.0,4.0,58,0.00,,,0.03,,2013-03-05 10:21:00,
2013-03-05 05:32:00,38.0,25.0,29.88,East,86,1.0,1.0,59,0.00,,,0.03,,2013-03-05 10:32:00,
2013-03-05 05:42:00,38.0,25.0,29.88,East,86,1.0,1.0,59,0.00,,,0.03,,2013-03-05 10:42:00,
2013-03-05 05:52:00,38.0,25.0,29.88,East,87,3.0,3.0,60,0.00,,,0.03,,2013-03-05 10:52:00,
2013-03-05 06:01:00,38.0,25.0,29.88,East,91,1.0,3.0,60,0.00,,,0.03,,2013-03-05 11:01:00,
2013-03-05 06:11:00,38.0,25.0,29.88,NNE,24,2.0,2.0,59,0.00,,,0.03,,2013-03-05 11:11:00,
2013-03-05 06:22:00,38.0,25.0,29.88,NNE,24,2.0,2.0,59,0.00,,,0.03,,2013-03-05 11:22:00,
2013-03-05 06:32:00,37.0,28.0,29.88,NE,53,0.0,0.0,71,0.00,,,0.03,,2013-03-05 11:32:00,
2013-03-05 06:42:00,37.0,28.0,29.88,NE,53,0.0,0.0,71,0.00,,,0.03,,2013-03-05 11:42:00,
2013-03-05 06:52:00,36.0,32.0,29.88,NE,42,1.0,0.0,86,0.00,,,0.03,,2013-03-05 11:52:00,
2013-03-05 07:02:00,35.0,32.0,29.88,ENE,65,0.0,0.0,88,0.00,,,0.03,,2013-03-05 12:02:00,
2013-03-05 07:12:00,35.0,32.0,29.88,ENE,65,0.0,0.0,88,0.00,,,0.03,,2013-03-05 12:12:00,
2013-03-05 07:22:00,35.0,32.0,29.89,ENE,59,2.0,2.0,90,0.05,,,0.03,,2013-03-05 12:22:00,
2013-03-05 07:32:00,35.0,33.0,29.88,ENE,60,2.0,2.0,91,0.05,,,0.03,,2013-03-05 12:32:00,
2013-03-05 07:42:00,35.0,33.0,29.88,ENE,60,2.0,2.0,91,0.05,,,0.03,,2013-03-05 12:42:00,
2013-03-05 07:53:00,34.0,31.0,29.86,East,86,4.0,6.0,90,0.05,,,0.03,,2013-03-05 12:53:00,
2013-03-05 08:02:00,35.0,32.0,29.87,ENE,62,3.0,3.0,88,0.05,,,0.03,,2013-03-05 13:02:00,
2013-03-05 08:12:00,35.0,32.0,29.87,ENE,62,3.0,3.0,88,0.05,,,0.03,,2013-03-05 13:12:00,
2013-03-05 08:22:00,35.0,33.0,29.86,NE,56,5.0,5.0,91,0.01,,,0.03,,2013-03-05 13:22:00,
2013-03-05 08:32:00,35.0,33.0,29.86,ENE,63,3.0,3.0,91,0.01,,,0.03,,2013-03-05 13:32:00,
2013-03-05 08:42:00,35.0,33.0,29.86,ENE,63,3.0,3.0,91,0.01,,,0.03,,2013-03-05 13:42:00,
2013-03-05 08:52:00,35.0,33.0,29.86,ENE,73,2.0,2.0,92,0.01,,,0.03,,2013-03-05 13:52:00,
2013-03-05 09:02:00,35.0,33.0,29.86,ENE,68,2.0,3.0,93,0.01,,,0.03,,2013-03-05 14:02:00,
2013-03-05 09:11:00,35.0,33.0,29.86,ENE,68,2.0,3.0,93,0.01,,,0.03,,2013-03-05 14:11:00,
2013-03-05 09:22:00,35.0,34.0,29.85,NE,42,3.0,0.0,95,0.01,,,0.03,,2013-03-05 14:22:00,
2013-03-05 09:32:00,36.0,35.0,29.84,East,84,5.0,5.0,95,0.01,,,0.03,,2013-03-05 14:32:00,
2013-03-05 09:42:00,36.0,35.0,29.84,East,84,5.0,5.0,95,0.01,,,0.03,,2013-03-05 14:42:00,
2013-03-05 09:52:00,38.0,37.0,29.83,ESE,105,4.0,4.0,95,0.01,,,0.03,,2013-03-05 14:52:00,
2013-03-05 10:02:00,38.0,37.0,29.83,ESE,105,3.0,4.0,95,0.01,,,0.03,,2013-03-05 15:02:00,
2013-03-05 10:11:00,38.0,37.0,29.83,ESE,105,3.0,4.0,95,0.01,,,0.03,,2013-03-05 15:11:00,
2013-03-05 10:21:00,39.0,38.0,29.83,SE,132,3.0,3.0,95,0.00,,,0.03,,2013-03-05 15:21:00,
2013-03-05 10:32:00,39.0,38.0,29.82,ESE,121,4.0,6.0,95,0.00,,,0.03,,2013-03-05 15:32:00,
2013-03-05 10:42:00,39.0,38.0,29.82,ESE,121,4.0,6.0,95,0.00,,,0.03,,2013-03-05 15:42:00,
2013-03-05 10:52:00,40.0,39.0,29.81,SE,131,3.0,3.0,96,0.00,,,0.03,,2013-03-05 15:52:00,
2013-03-05 11:01:00,41.0,40.0,29.80,ESE,120,3.0,3.0,96,0.00,,,0.03,,2013-03-05 16:01:00,
2013-03-05 11:11:00,41.0,40.0,29.80,ESE,120,3.0,3.0,96,0.00,,,0.03,,2013-03-05 16:11:00,
2013-03-05 11:21:00,42.0,41.0,29.79,East,94,4.0,5.0,97,0.03,,,0.03,,2013-03-05 16:21:00,
2013-03-05 11:32:00,42.0,41.0,29.77,ESE,104,5.0,8.0,98,0.03,,,0.03,,2013-03-05 16:32:00,
2013-03-05 11:42:00,42.0,41.0,29.77,ESE,104,5.0,8.0,98,0.03,,,0.03,,2013-03-05 16:42:00,
2013-03-05 11:52:00,43.0,42.0,29.76,SE,125,5.0,6.0,98,0.03,,,0.03,,2013-03-05 16:52:00,
2013-03-05 12:01:00,44.0,43.0,29.75,SSE,149,4.0,4.0,98,0.03,,,0.03,,2013-03-05 17:01:00,
2013-03-05 12:11:00,44.0,43.0,29.75,SSE,149,4.0,4.0,98,0.03,,,0.03,,2013-03-05 17:11:00,
2013-03-05 12:21:00,44.0,43.0,29.74,SE,135,4.0,0.0,98,0.03,,,0.03,,2013-03-05 17:21:00,
2013-03-05 12:32:00,45.0,44.0,29.72,SSE,148,4.0,5.0,98,0.03,,,0.03,,2013-03-05 17:32:00,
2013-03-05 12:42:00,45.0,44.0,29.72,SSE,148,4.0,5.0,98,0.03,,,0.03,,2013-03-05 17:42:00,
2013-03-05 12:53:00,45.0,44.0,29.72,SE,142,6.0,7.0,98,0.03,,,0.03,,2013-03-05 17:53:00,
2013-03-05 13:02:00,45.0,44.0,29.71,SSE,167,5.0,6.0,98,0.03,,,0.03,,2013-03-05 18:02:00,
2013-03-05 13:11:00,45.0,44.0,29.71,SSE,167,5.0,6.0,98,0.03,,,0.03,,2013-03-05 18:11:00,
2013-03-05 13:22:00,45.0,44.0,29.70,SE,146,5.0,5.0,98,0.00,,,0.03,,2013-03-05 18:22:00,
2013-03-05 13:32:00,45.0,44.0,29.68,SE,128,4.0,6.0,98,0.00,,,0.03,,2013-03-05 18:32:00,
2013-03-05 13:42:00,45.0,44.0,29.68,SE,128,4.0,6.0,98,0.00,,,0.03,,2013-03-05 18:42:00,
2013-03-05 13:53:00,45.0,45.0,29.67,SE,142,5.0,5.0,99,0.00,,,0.03,,2013-03-05 18:53:00,
2013-03-05 14:01:00,45.0,44.0,29.67,SSE,153,5.0,5.0,98,0.00,,,0.03,,2013-03-05 19:01:00,
2013-03-05 14:11:00,45.0,44.0,29.67,SSE,153,5.0,5.0,98,0.00,,,0.03,,2013-03-05 19:11:00,
2013-03-05 14:21:00,45.0,45.0,29.66,ESE,122,5.0,6.0,99,0.18,,,0.03,,2013-03-05 19:21:00,
2013-03-05 14:32:00,45.0,45.0,29.63,ESE,122,5.0,6.0,99,0.18,,,0.03,,2013-03-05 19:32:00,
2013-03-05 14:42:00,45.0,45.0,29.63,ESE,122,5.0,6.0,99,0.18,,,0.03,,2013-03-05 19:42:00,
2013-03-05 14:52:00,45.0,45.0,29.61,SE,143,5.0,5.0,99,0.18,,,0.03,,2013-03-05 19:52:00,
2013-03-05 15:01:00,46.0,46.0,29.61,SE,134,3.0,0.0,99,0.18,,,0.03,,2013-03-05 20:01:00,
2013-03-05 15:11:00,46.0,46.0,29.60,East,94,3.0,3.0,99,0.18,,,0.03,,2013-03-05 20:11:00,
2013-03-05 15:22:00,46.0,46.0,29.60,East,94,3.0,3.0,99,0.18,,,0.03,,2013-03-05 20:22:00,
2013-03-05 15:32:00,47.0,46.0,29.58,SE,131,3.0,3.0,98,0.08,,,0.03,,2013-03-05 20:32:00,
2013-03-05 15:42:00,47.0,46.0,29.58,SE,131,3.0,3.0,98,0.08,,,0.03,,2013-03-05 20:42:00,
2013-03-05 15:52:00,47.0,46.0,29.57,East,97,2.0,3.0,98,0.08,,,0.03,,2013-03-05 20:52:00,
2013-03-05 16:02:00,47.0,46.0,29.58,East,90,3.0,0.0,98,0.08,,,0.03,,2013-03-05 21:02:00,
2013-03-05 16:11:00,47.0,46.0,29.58,East,90,3.0,0.0,98,0.08,,,0.03,,2013-03-05 21:11:00,
2013-03-05 16:22:00,46.0,45.0,29.56,SE,131,6.0,6.0,98,0.08,,,0.03,,2013-03-05 21:22:00,
2013-03-05 16:32:00,47.0,46.0,29.55,SE,129,1.0,3.0,98,0.08,,,0.03,,2013-03-05 21:32:00,
2013-03-05 16:42:00,47.0,46.0,29.55,SE,129,1.0,3.0,98,0.08,,,0.03,,2013-03-05 21:42:00,
2013-03-05 16:52:00,47.0,46.0,29.54,SSE,148,3.0,0.0,98,0.08,,,0.03,,2013-03-05 21:52:00,
2013-03-05 17:01:00,47.0,46.0,29.53,SE,143,0.0,0.0,98,0.08,,,0.03,,2013-03-05 22:01:00,
2013-03-05 17:11:00,47.0,46.0,29.53,SE,143,0.0,0.0,98,0.08,,,0.03,,2013-03-05 22:11:00,
2013-03-05 17:22:00,47.0,47.0,29.52,SE,134,0.0,0.0,99,0.08,,,0.03,,2013-03-05 22:22:00,
2013-03-05 17:32:00,47.0,47.0,29.52,SSE,160,3.0,4.0,99,0.08,,,0.03,,2013-03-05 22:32:00,
2013-03-05 17:42:00,47.0,47.0,29.52,SSE,160,3.0,4.0,99,0.08,,,0.03,,2013-03-05 22:42:00,
2013-03-05 17:52:00,47.0,47.0,29.51,ESE,122,3.0,3.0,99,0.08,,,0.03,,2013-03-05 22:52:00,
2013-03-05 18:01:00,47.0,47.0,29.50,ESE,121,3.0,3.0,99,0.08,,,0.03,,2013-03-05 23:01:00,
2013-03-05 18:11:00,47.0,47.0,29.50,ESE,121,3.0,3.0,99,0.08,,,0.03,,2013-03-05 23:11:00,
2013-03-05 18:21:00,47.0,47.0,29.50,South,179,2.0,0.0,99,0.12,,,0.03,,2013-03-05 23:21:00,
2013-03-05 18:32:00,47.0,47.0,29.50,SSE,153,1.0,0.0,99,0.12,,,0.03,,2013-03-05 23:32:00,
2013-03-05 18:42:00,47.0,47.0,29.50,SSE,153,1.0,0.0,99,0.12,,,0.03,,2013-03-05 23:42:00,
2013-03-05 18:53:00,47.0,47.0,29.50,SSW,198,4.0,0.0,99,0.12,,,0.03,,2013-03-05 23:53:00,
2013-03-05 19:01:00,47.0,47.0,29.52,WSW,243,5.0,5.0,99,0.12,,,0.03,,2013-03-06 00:01:00,
2013-03-05 19:11:00,47.0,47.0,29.52,WSW,243,5.0,5.0,99,0.12,,,0.03,,2013-03-06 00:11:00,
2013-03-05 19:21:00,43.0,42.0,29.55,West,259,8.0,8.0,96,0.12,,,0.03,,2013-03-06 00:21:00,
2013-03-05 19:32:00,41.0,40.0,29.56,WSW,250,9.0,9.0,96,0.12,,,0.03,,2013-03-06 00:32:00,
2013-03-05 19:42:00,41.0,40.0,29.56,WSW,250,9.0,9.0,96,0.12,,,0.03,,2013-03-06 00:42:00,
2013-03-05 19:52:00,39.0,38.0,29.59,WSW,255,10.0,10.0,96,0.12,,,0.03,,2013-03-06 00:52:00,
2013-03-05 20:02:00,36.0,35.0,29.61,SW,235,10.0,10.0,96,0.12,,,0.03,,2013-03-06 01:02:00,
2013-03-05 20:11:00,36.0,35.0,29.61,SW,235,10.0,10.0,96,0.12,,,0.03,,2013-03-06 01:11:00,
2013-03-05 20:21:00,34.0,33.0,29.63,WSW,256,8.0,8.0,97,0.05,,,0.03,,2013-03-06 01:21:00,
2013-03-05 20:32:00,33.0,32.0,29.65,West,259,7.0,10.0,97,0.05,,,0.03,,2013-03-06 01:32:00,
2013-03-05 20:42:00,33.0,32.0,29.65,West,259,7.0,10.0,97,0.05,,,0.03,,2013-03-06 01:42:00,
2013-03-05 20:52:00,32.0,32.0,29.66,West,262,6.0,8.0,98,0.05,,,0.03,,2013-03-06 01:52:00,
2013-03-05 21:01:00,32.0,32.0,29.66,West,263,4.0,6.0,99,0.05,,,0.03,,2013-03-06 02:01:00,
2013-03-05 21:11:00,32.0,32.0,29.66,West,263,4.0,6.0,99,0.05,,,0.03,,2013-03-06 02:11:00,
2013-03-05 21:22:00,32.0,32.0,29.67,SW,224,8.0,8.0,99,0.05,,,0.03,,2013-03-06 02:22:00,
2013-03-05 21:32:00,31.0,31.0,29.67,West,278,8.0,8.0,99,0.00,,,0.03,,2013-03-06 02:32:00,
2013-03-05 21:42:00,31.0,31.0,29.67,West,278,8.0,8.0,99,0.00,,,0.03,,2013-03-06 02:42:00,
2013-03-05 21:52:00,31.0,31.0,29.68,West,259,4.0,4.0,99,0.00,,,0.03,,2013-03-06 02:52:00,
2013-03-05 22:02:00,31.0,31.0,29.68,SW,236,3.0,3.0,98,0.00,,,0.03,,2013-03-06 03:02:00,
2013-03-05 22:11:00,31.0,31.0,29.68,SW,236,3.0,3.0,98,0.00,,,0.03,,2013-03-06 03:11:00,
2013-03-05 22:22:00,31.0,31.0,29.69,West,269,6.0,11.0,98,0.00,,,0.03,,2013-03-06 03:22:00,
2013-03-05 22:32:00,30.0,29.0,29.70,WSW,245,7.0,9.0,97,0.00,,,0.03,,2013-03-06 03:32:00,
2013-03-05 22:42:00,30.0,29.0,29.70,WSW,245,7.0,9.0,97,0.00,,,0.03,,2013-03-06 03:42:00,
2013-03-05 22:52:00,30.0,29.0,29.69,WSW,239,5.0,5.0,98,0.00,,,0.03,,2013-03-06 03:52:00,
2013-03-05 23:02:00,30.0,29.0,29.69,WSW,253,6.0,8.0,98,0.00,,,0.03,,2013-03-06 04:02:00,
2013-03-05 23:11:00,30.0,29.0,29.69,WSW,253,6.0,8.0,98,0.00,,,0.03,,2013-03-06 04:11:00,
2013-03-05 23:22:00,30.0,29.0,29.70,West,262,7.0,7.0,98,0.00,,,0.03,,2013-03-06 04:22:00,
2013-03-05 23:32:00,30.0,29.0,29.70,WSW,248,3.0,11.0,98,0.00,,,0.03,,2013-03-06 04:32:00,
2013-03-05 23:42:00,30.0,29.0,29.70,WSW,248,3.0,11.0,98,0.00,,,0.03,,2013-03-06 04:42:00,
2013-03-05 23:52:00,29.0,29.0,29.70,SW,233,5.0,6.0,98,0.00,,,0.03,,2013-03-06 04:52:00,